Rheems, Pennsylvania
Current Conditions -  °F | °C
As of 10:56 PM on Monday 20 Oct 2014 (Local Time) from KMDT Reporting Station
Overcast Overcast  
Wind Chill: 54°   Ceiling: 8000
Heat Index: 54°   Visibility: 10mi
Dew Point: 47°   Wind: 9mph
Humidity: 77%   Direction: 160°SSE
Pressure: 29.92"   Gusts: NA
Location:  40.13°N, 76.57°W
Report Text: KMDT 210256Z 16008KT 10SM OVC080 12/08 A2992 RMK AO2 RAB06E18 SLP131 P0000 60000 T01220083 58006
Loading
Personal Weather Stations






























Interactive Weather Map
Tropical Storm Tracking
New forecast layout! Learn more

10-Day Weather Forecast

Advertisements
Track Severe Weather on mobile